sensor_id;sensor_type;location;lat;lon;timestamp;P1;durP1;ratioP1;P2;durP2;ratioP2
19032;SDS011;9649;51.042;13.804;2022-11-20T00:04:25;40.87;;;17.57;;
19032;SDS011;9649;51.042;13.804;2022-11-20T00:09:28;41.03;;;16.57;;
19032;SDS011;9649;51.042;13.804;2022-11-20T00:14:32;33.07;;;14.87;;
19032;SDS011;9649;51.042;13.804;2022-11-20T00:19:35;39.17;;;15.80;;
19032;SDS011;9649;51.042;13.804;2022-11-20T00:24:38;38.67;;;15.87;;
19032;SDS011;9649;51.042;13.804;2022-11-20T00:29:44;36.03;;;15.70;;
19032;SDS011;9649;51.042;13.804;2022-11-20T00:34:47;38.93;;;15.67;;
19032;SDS011;9649;51.042;13.804;2022-11-20T00:39:50;32.33;;;15.23;;
19032;SDS011;9649;51.042;13.804;2022-11-20T00:44:54;32.83;;;14.73;;
19032;SDS011;9649;51.042;13.804;2022-11-20T00:49:57;39.53;;;14.97;;
19032;SDS011;9649;51.042;13.804;2022-11-20T00:55:00;35.23;;;14.77;;
19032;SDS011;9649;51.042;13.804;2022-11-20T01:00:04;34.07;;;14.23;;
19032;SDS011;9649;51.042;13.804;2022-11-20T01:05:08;38.07;;;14.90;;
19032;SDS011;9649;51.042;13.804;2022-11-20T01:10:11;32.53;;;13.90;;
19032;SDS011;9649;51.042;13.804;2022-11-20T01:15:15;34.47;;;15.07;;
19032;SDS011;9649;51.042;13.804;2022-11-20T01:20:18;35.80;;;14.37;;
19032;SDS011;9649;51.042;13.804;2022-11-20T01:25:21;40.93;;;16.77;;
19032;SDS011;9649;51.042;13.804;2022-11-20T01:30:25;38.27;;;15.00;;
19032;SDS011;9649;51.042;13.804;2022-11-20T01:35:28;38.53;;;15.53;;
19032;SDS011;9649;51.042;13.804;2022-11-20T01:40:30;36.67;;;15.60;;
19032;SDS011;9649;51.042;13.804;2022-11-20T01:45:50;37.20;;;14.87;;
19032;SDS011;9649;51.042;13.804;2022-11-20T01:50:59;34.37;;;15.40;;
19032;SDS011;9649;51.042;13.804;2022-11-20T01:56:05;33.17;;;14.97;;
19032;SDS011;9649;51.042;13.804;2022-11-20T02:01:13;37.03;;;15.07;;
19032;SDS011;9649;51.042;13.804;2022-11-20T02:06:17;37.13;;;15.63;;
19032;SDS011;9649;51.042;13.804;2022-11-20T02:11:24;32.63;;;14.13;;
19032;SDS011;9649;51.042;13.804;2022-11-20T02:16:30;31.70;;;13.87;;
19032;SDS011;9649;51.042;13.804;2022-11-20T02:21:37;32.73;;;13.67;;
19032;SDS011;9649;51.042;13.804;2022-11-20T02:26:48;35.20;;;13.60;;
19032;SDS011;9649;51.042;13.804;2022-11-20T02:31:53;33.70;;;13.43;;
19032;SDS011;9649;51.042;13.804;2022-11-20T02:36:59;32.97;;;13.80;;
19032;SDS011;9649;51.042;13.804;2022-11-20T02:42:03;33.03;;;14.33;;
19032;SDS011;9649;51.042;13.804;2022-11-20T02:47:06;36.27;;;14.03;;
19032;SDS011;9649;51.042;13.804;2022-11-20T02:52:09;32.60;;;13.83;;
19032;SDS011;9649;51.042;13.804;2022-11-20T02:57:13;29.70;;;12.83;;
19032;SDS011;9649;51.042;13.804;2022-11-20T03:02:16;29.47;;;12.30;;
19032;SDS011;9649;51.042;13.804;2022-11-20T03:07:19;31.33;;;12.23;;
19032;SDS011;9649;51.042;13.804;2022-11-20T03:12:23;35.27;;;13.43;;
19032;SDS011;9649;51.042;13.804;2022-11-20T03:17:26;35.23;;;14.23;;
19032;SDS011;9649;51.042;13.804;2022-11-20T03:22:30;35.57;;;14.33;;
19032;SDS011;9649;51.042;13.804;2022-11-20T03:27:34;38.23;;;15.40;;
19032;SDS011;9649;51.042;13.804;2022-11-20T03:32:37;37.20;;;14.67;;
19032;SDS011;9649;51.042;13.804;2022-11-20T03:37:40;37.27;;;15.33;;
19032;SDS011;9649;51.042;13.804;2022-11-20T03:42:44;35.53;;;14.37;;
19032;SDS011;9649;51.042;13.804;2022-11-20T03:47:47;33.73;;;13.00;;
19032;SDS011;9649;51.042;13.804;2022-11-20T03:52:50;29.17;;;11.83;;
19032;SDS011;9649;51.042;13.804;2022-11-20T03:57:57;30.10;;;12.87;;
19032;SDS011;9649;51.042;13.804;2022-11-20T04:03:00;30.37;;;11.47;;
19032;SDS011;9649;51.042;13.804;2022-11-20T04:08:04;26.43;;;11.13;;
19032;SDS011;9649;51.042;13.804;2022-11-20T04:13:09;26.07;;;10.77;;
19032;SDS011;9649;51.042;13.804;2022-11-20T04:18:11;26.37;;;10.77;;
19032;SDS011;9649;51.042;13.804;2022-11-20T04:23:14;24.20;;;10.63;;
19032;SDS011;9649;51.042;13.804;2022-11-20T04:28:18;28.40;;;11.80;;
19032;SDS011;9649;51.042;13.804;2022-11-20T04:33:21;28.13;;;10.83;;
19032;SDS011;9649;51.042;13.804;2022-11-20T04:38:28;24.07;;;10.90;;
19032;SDS011;9649;51.042;13.804;2022-11-20T04:43:32;29.20;;;10.70;;
19032;SDS011;9649;51.042;13.804;2022-11-20T04:48:35;24.90;;;11.20;;
19032;SDS011;9649;51.042;13.804;2022-11-20T04:53:38;26.73;;;10.53;;
19032;SDS011;9649;51.042;13.804;2022-11-20T04:58:42;25.63;;;10.87;;
19032;SDS011;9649;51.042;13.804;2022-11-20T05:03:45;26.90;;;10.97;;
19032;SDS011;9649;51.042;13.804;2022-11-20T05:08:48;25.50;;;10.70;;
19032;SDS011;9649;51.042;13.804;2022-11-20T05:13:53;26.53;;;10.83;;
19032;SDS011;9649;51.042;13.804;2022-11-20T05:18:59;30.87;;;12.63;;
19032;SDS011;9649;51.042;13.804;2022-11-20T05:24:06;28.87;;;12.27;;
19032;SDS011;9649;51.042;13.804;2022-11-20T05:29:11;32.80;;;12.67;;
19032;SDS011;9649;51.042;13.804;2022-11-20T05:34:16;28.53;;;12.07;;
19032;SDS011;9649;51.042;13.804;2022-11-20T05:39:19;34.10;;;13.00;;
19032;SDS011;9649;51.042;13.804;2022-11-20T05:44:23;27.43;;;12.57;;
19032;SDS011;9649;51.042;13.804;2022-11-20T05:49:26;34.50;;;12.90;;
19032;SDS011;9649;51.042;13.804;2022-11-20T05:54:29;35.67;;;13.87;;
19032;SDS011;9649;51.042;13.804;2022-11-20T05:59:33;28.00;;;12.00;;
19032;SDS011;9649;51.042;13.804;2022-11-20T06:04:35;30.47;;;12.53;;
19032;SDS011;9649;51.042;13.804;2022-11-20T06:09:39;28.30;;;11.63;;
19032;SDS011;9649;51.042;13.804;2022-11-20T06:14:43;29.20;;;12.50;;
19032;SDS011;9649;51.042;13.804;2022-11-20T06:19:46;26.90;;;11.33;;
19032;SDS011;9649;51.042;13.804;2022-11-20T06:24:48;30.37;;;12.63;;
19032;SDS011;9649;51.042;13.804;2022-11-20T06:29:53;35.23;;;13.23;;
19032;SDS011;9649;51.042;13.804;2022-11-20T06:34:56;32.00;;;12.73;;
19032;SDS011;9649;51.042;13.804;2022-11-20T06:39:58;28.90;;;11.87;;
19032;SDS011;9649;51.042;13.804;2022-11-20T06:45:03;29.47;;;12.23;;
19032;SDS011;9649;51.042;13.804;2022-11-20T06:50:06;33.23;;;13.23;;
19032;SDS011;9649;51.042;13.804;2022-11-20T06:55:09;38.90;;;15.07;;
19032;SDS011;9649;51.042;13.804;2022-11-20T07:00:14;36.20;;;14.67;;
19032;SDS011;9649;51.042;13.804;2022-11-20T07:05:17;30.33;;;12.77;;
19032;SDS011;9649;51.042;13.804;2022-11-20T07:10:20;29.83;;;12.87;;
19032;SDS011;9649;51.042;13.804;2022-11-20T07:15:24;28.63;;;12.47;;
19032;SDS011;9649;51.042;13.804;2022-11-20T07:20:28;34.13;;;12.77;;
19032;SDS011;9649;51.042;13.804;2022-11-20T07:25:30;32.43;;;12.57;;
19032;SDS011;9649;51.042;13.804;2022-11-20T07:30:35;27.67;;;12.27;;
19032;SDS011;9649;51.042;13.804;2022-11-20T07:35:38;26.83;;;12.13;;
19032;SDS011;9649;51.042;13.804;2022-11-20T07:40:41;35.80;;;13.27;;
19032;SDS011;9649;51.042;13.804;2022-11-20T07:45:46;29.83;;;13.20;;
19032;SDS011;9649;51.042;13.804;2022-11-20T07:50:48;29.63;;;13.80;;
19032;SDS011;9649;51.042;13.804;2022-11-20T07:55:51;31.67;;;15.40;;
19032;SDS011;9649;51.042;13.804;2022-11-20T08:00:55;31.67;;;15.30;;
19032;SDS011;9649;51.042;13.804;2022-11-20T08:05:58;31.10;;;15.63;;
19032;SDS011;9649;51.042;13.804;2022-11-20T08:11:02;32.37;;;17.00;;
19032;SDS011;9649;51.042;13.804;2022-11-20T08:16:23;33.00;;;17.37;;
19032;SDS011;9649;51.042;13.804;2022-11-20T08:21:26;32.77;;;16.17;;
19032;SDS011;9649;51.042;13.804;2022-11-20T08:26:35;28.67;;;15.17;;
19032;SDS011;9649;51.042;13.804;2022-11-20T08:31:40;29.93;;;16.47;;
19032;SDS011;9649;51.042;13.804;2022-11-20T08:36:43;29.67;;;16.33;;
19032;SDS011;9649;51.042;13.804;2022-11-20T08:41:46;31.23;;;16.87;;
19032;SDS011;9649;51.042;13.804;2022-11-20T08:46:50;28.52;;;16.48;;
19032;SDS011;9649;51.042;13.804;2022-11-20T08:51:52;28.67;;;16.83;;
19032;SDS011;9649;51.042;13.804;2022-11-20T08:56:56;27.55;;;17.20;;
19032;SDS011;9649;51.042;13.804;2022-11-20T09:02:00;26.65;;;16.48;;
19032;SDS011;9649;51.042;13.804;2022-11-20T09:07:03;25.63;;;15.57;;
19032;SDS011;9649;51.042;13.804;2022-11-20T09:12:06;25.73;;;16.67;;
19032;SDS011;9649;51.042;13.804;2022-11-20T09:17:10;23.98;;;15.52;;
19032;SDS011;9649;51.042;13.804;2022-11-20T09:22:14;23.63;;;14.75;;
19032;SDS011;9649;51.042;13.804;2022-11-20T09:27:17;25.55;;;14.30;;
19032;SDS011;9649;51.042;13.804;2022-11-20T09:32:23;20.25;;;12.93;;
19032;SDS011;9649;51.042;13.804;2022-11-20T09:37:26;24.23;;;14.60;;
19032;SDS011;9649;51.042;13.804;2022-11-20T09:42:32;20.42;;;13.07;;
19032;SDS011;9649;51.042;13.804;2022-11-20T09:47:45;16.08;;;10.65;;
19032;SDS011;9649;51.042;13.804;2022-11-20T09:52:59;19.77;;;12.10;;
19032;SDS011;9649;51.042;13.804;2022-11-20T09:58:15;17.17;;;9.95;;
19032;SDS011;9649;51.042;13.804;2022-11-20T10:03:36;17.20;;;11.35;;
19032;SDS011;9649;51.042;13.804;2022-11-20T10:08:47;17.88;;;10.95;;
19032;SDS011;9649;51.042;13.804;2022-11-20T10:14:00;15.10;;;10.27;;
19032;SDS011;9649;51.042;13.804;2022-11-20T10:19:20;15.73;;;10.55;;
19032;SDS011;9649;51.042;13.804;2022-11-20T10:24:44;13.98;;;9.73;;
19032;SDS011;9649;51.042;13.804;2022-11-20T10:29:56;17.05;;;10.05;;
19032;SDS011;9649;51.042;13.804;2022-11-20T10:35:06;15.65;;;10.05;;
19032;SDS011;9649;51.042;13.804;2022-11-20T10:40:20;13.90;;;8.50;;
19032;SDS011;9649;51.042;13.804;2022-11-20T10:45:36;13.57;;;9.30;;
19032;SDS011;9649;51.042;13.804;2022-11-20T10:51:03;12.20;;;8.70;;
19032;SDS011;9649;51.042;13.804;2022-11-20T10:56:17;12.65;;;7.93;;
19032;SDS011;9649;51.042;13.804;2022-11-20T11:01:23;15.07;;;9.57;;
19032;SDS011;9649;51.042;13.804;2022-11-20T11:06:31;18.73;;;10.23;;
19032;SDS011;9649;51.042;13.804;2022-11-20T11:11:38;14.63;;;8.63;;
19032;SDS011;9649;51.042;13.804;2022-11-20T11:16:48;13.57;;;8.20;;
19032;SDS011;9649;51.042;13.804;2022-11-20T11:21:53;14.60;;;9.23;;
19032;SDS011;9649;51.042;13.804;2022-11-20T11:26:59;13.20;;;8.43;;
19032;SDS011;9649;51.042;13.804;2022-11-20T11:32:05;15.87;;;8.80;;
19032;SDS011;9649;51.042;13.804;2022-11-20T11:37:13;17.47;;;9.67;;
19032;SDS011;9649;51.042;13.804;2022-11-20T11:42:19;16.47;;;9.07;;
19032;SDS011;9649;51.042;13.804;2022-11-20T11:47:23;12.93;;;7.43;;
19032;SDS011;9649;51.042;13.804;2022-11-20T11:52:29;13.60;;;7.63;;
19032;SDS011;9649;51.042;13.804;2022-11-20T11:57:40;12.45;;;8.15;;
19032;SDS011;9649;51.042;13.804;2022-11-20T12:02:52;11.00;;;7.18;;
19032;SDS011;9649;51.042;13.804;2022-11-20T12:08:02;8.73;;;6.35;;
19032;SDS011;9649;51.042;13.804;2022-11-20T12:13:19;6.90;;;5.63;;
19032;SDS011;9649;51.042;13.804;2022-11-20T12:18:28;8.80;;;6.30;;
19032;SDS011;9649;51.042;13.804;2022-11-20T12:23:39;9.00;;;6.30;;
19032;SDS011;9649;51.042;13.804;2022-11-20T12:28:51;9.38;;;6.72;;
19032;SDS011;9649;51.042;13.804;2022-11-20T12:34:17;14.52;;;7.30;;
19032;SDS011;9649;51.042;13.804;2022-11-20T12:39:35;11.43;;;7.40;;
19032;SDS011;9649;51.042;13.804;2022-11-20T12:44:48;12.47;;;7.37;;
19032;SDS011;9649;51.042;13.804;2022-11-20T12:50:14;12.30;;;7.17;;
19032;SDS011;9649;51.042;13.804;2022-11-20T12:55:30;11.80;;;6.80;;
19032;SDS011;9649;51.042;13.804;2022-11-20T13:00:42;14.07;;;7.40;;
19032;SDS011;9649;51.042;13.804;2022-11-20T13:05:59;12.97;;;7.50;;
19032;SDS011;9649;51.042;13.804;2022-11-20T13:11:12;13.13;;;7.10;;
19032;SDS011;9649;51.042;13.804;2022-11-20T13:16:22;12.57;;;6.77;;
19032;SDS011;9649;51.042;13.804;2022-11-20T13:21:35;12.47;;;6.73;;
19032;SDS011;9649;51.042;13.804;2022-11-20T13:26:41;11.67;;;7.00;;
19032;SDS011;9649;51.042;13.804;2022-11-20T13:31:44;12.80;;;7.23;;
19032;SDS011;9649;51.042;13.804;2022-11-20T13:36:48;13.83;;;7.30;;
19032;SDS011;9649;51.042;13.804;2022-11-20T13:41:57;16.60;;;7.40;;
19032;SDS011;9649;51.042;13.804;2022-11-20T13:47:01;11.53;;;6.23;;
19032;SDS011;9649;51.042;13.804;2022-11-20T13:52:08;9.90;;;6.33;;
19032;SDS011;9649;51.042;13.804;2022-11-20T13:57:40;9.67;;;5.63;;
19032;SDS011;9649;51.042;13.804;2022-11-20T14:02:59;10.93;;;5.83;;
19032;SDS011;9649;51.042;13.804;2022-11-20T14:08:12;11.67;;;6.33;;
19032;SDS011;9649;51.042;13.804;2022-11-20T14:13:26;9.83;;;5.40;;
19032;SDS011;9649;51.042;13.804;2022-11-20T14:18:29;11.63;;;5.73;;
19032;SDS011;9649;51.042;13.804;2022-11-20T14:23:32;12.13;;;5.93;;
19032;SDS011;9649;51.042;13.804;2022-11-20T14:28:36;10.23;;;6.17;;
19032;SDS011;9649;51.042;13.804;2022-11-20T14:33:39;11.20;;;5.80;;
19032;SDS011;9649;51.042;13.804;2022-11-20T14:38:41;11.77;;;6.83;;
19032;SDS011;9649;51.042;13.804;2022-11-20T14:43:46;10.80;;;6.07;;
19032;SDS011;9649;51.042;13.804;2022-11-20T14:48:54;11.87;;;6.73;;
19032;SDS011;9649;51.042;13.804;2022-11-20T14:54:11;14.57;;;7.27;;
19032;SDS011;9649;51.042;13.804;2022-11-20T14:59:21;11.57;;;6.67;;
19032;SDS011;9649;51.042;13.804;2022-11-20T15:04:25;11.83;;;6.63;;
19032;SDS011;9649;51.042;13.804;2022-11-20T15:09:31;13.17;;;7.20;;
19032;SDS011;9649;51.042;13.804;2022-11-20T15:14:36;14.47;;;7.70;;
19032;SDS011;9649;51.042;13.804;2022-11-20T15:19:39;13.93;;;7.60;;
19032;SDS011;9649;51.042;13.804;2022-11-20T15:24:41;12.30;;;7.47;;
19032;SDS011;9649;51.042;13.804;2022-11-20T15:29:45;15.53;;;8.40;;
19032;SDS011;9649;51.042;13.804;2022-11-20T15:34:48;18.83;;;9.83;;
19032;SDS011;9649;51.042;13.804;2022-11-20T15:39:51;22.13;;;9.77;;
19032;SDS011;9649;51.042;13.804;2022-11-20T15:44:55;20.20;;;10.37;;
19032;SDS011;9649;51.042;13.804;2022-11-20T15:49:58;24.23;;;11.43;;
19032;SDS011;9649;51.042;13.804;2022-11-20T15:55:01;21.17;;;10.50;;
19032;SDS011;9649;51.042;13.804;2022-11-20T16:00:12;20.83;;;10.03;;
19032;SDS011;9649;51.042;13.804;2022-11-20T16:05:23;21.73;;;11.77;;
19032;SDS011;9649;51.042;13.804;2022-11-20T16:10:29;25.37;;;13.17;;
19032;SDS011;9649;51.042;13.804;2022-11-20T16:15:33;27.80;;;13.67;;
19032;SDS011;9649;51.042;13.804;2022-11-20T16:20:51;24.33;;;11.87;;
19032;SDS011;9649;51.042;13.804;2022-11-20T16:25:55;29.47;;;14.43;;
19032;SDS011;9649;51.042;13.804;2022-11-20T16:31:07;28.87;;;13.00;;
19032;SDS011;9649;51.042;13.804;2022-11-20T16:36:10;26.30;;;12.60;;
19032;SDS011;9649;51.042;13.804;2022-11-20T16:41:14;30.17;;;15.23;;
19032;SDS011;9649;51.042;13.804;2022-11-20T16:46:19;27.30;;;13.90;;
19032;SDS011;9649;51.042;13.804;2022-11-20T16:51:23;24.77;;;11.83;;
19032;SDS011;9649;51.042;13.804;2022-11-20T16:56:27;29.20;;;13.17;;
19032;SDS011;9649;51.042;13.804;2022-11-20T17:01:31;26.00;;;13.37;;
19032;SDS011;9649;51.042;13.804;2022-11-20T17:06:36;30.37;;;13.87;;
19032;SDS011;9649;51.042;13.804;2022-11-20T17:11:41;31.53;;;14.90;;
19032;SDS011;9649;51.042;13.804;2022-11-20T17:16:45;31.60;;;14.00;;
19032;SDS011;9649;51.042;13.804;2022-11-20T17:21:48;27.63;;;13.63;;
19032;SDS011;9649;51.042;13.804;2022-11-20T17:26:51;30.70;;;14.07;;
19032;SDS011;9649;51.042;13.804;2022-11-20T17:31:55;27.93;;;13.70;;
19032;SDS011;9649;51.042;13.804;2022-11-20T17:36:58;27.57;;;13.47;;
19032;SDS011;9649;51.042;13.804;2022-11-20T17:42:01;30.43;;;14.67;;
19032;SDS011;9649;51.042;13.804;2022-11-20T17:47:23;28.43;;;14.93;;
19032;SDS011;9649;51.042;13.804;2022-11-20T17:52:26;36.13;;;17.10;;
19032;SDS011;9649;51.042;13.804;2022-11-20T17:57:29;34.63;;;16.53;;
19032;SDS011;9649;51.042;13.804;2022-11-20T18:02:50;29.90;;;14.77;;
19032;SDS011;9649;51.042;13.804;2022-11-20T18:07:53;36.60;;;16.77;;
19032;SDS011;9649;51.042;13.804;2022-11-20T18:12:56;33.20;;;15.50;;
19032;SDS011;9649;51.042;13.804;2022-11-20T18:18:00;29.90;;;15.27;;
19032;SDS011;9649;51.042;13.804;2022-11-20T18:23:03;31.70;;;14.80;;
19032;SDS011;9649;51.042;13.804;2022-11-20T18:28:06;34.77;;;15.40;;
19032;SDS011;9649;51.042;13.804;2022-11-20T18:33:10;30.57;;;14.90;;
19032;SDS011;9649;51.042;13.804;2022-11-20T18:38:13;39.83;;;18.40;;
19032;SDS011;9649;51.042;13.804;2022-11-20T18:43:16;36.57;;;17.40;;
19032;SDS011;9649;51.042;13.804;2022-11-20T18:48:37;39.07;;;17.60;;
19032;SDS011;9649;51.042;13.804;2022-11-20T18:53:40;35.70;;;17.40;;
19032;SDS011;9649;51.042;13.804;2022-11-20T18:58:47;35.60;;;18.43;;
19032;SDS011;9649;51.042;13.804;2022-11-20T19:03:51;33.67;;;16.17;;
19032;SDS011;9649;51.042;13.804;2022-11-20T19:08:54;36.30;;;18.27;;
19032;SDS011;9649;51.042;13.804;2022-11-20T19:13:57;36.60;;;17.27;;
19032;SDS011;9649;51.042;13.804;2022-11-20T19:19:01;33.73;;;16.87;;
19032;SDS011;9649;51.042;13.804;2022-11-20T19:24:06;31.97;;;15.67;;
19032;SDS011;9649;51.042;13.804;2022-11-20T19:29:11;35.87;;;16.20;;
19032;SDS011;9649;51.042;13.804;2022-11-20T19:34:16;47.77;;;19.77;;
19032;SDS011;9649;51.042;13.804;2022-11-20T19:39:19;38.63;;;17.07;;
19032;SDS011;9649;51.042;13.804;2022-11-20T19:44:23;38.57;;;17.10;;
19032;SDS011;9649;51.042;13.804;2022-11-20T19:49:27;35.03;;;15.33;;
19032;SDS011;9649;51.042;13.804;2022-11-20T19:54:30;39.53;;;17.50;;
19032;SDS011;9649;51.042;13.804;2022-11-20T19:59:33;41.00;;;17.67;;
19032;SDS011;9649;51.042;13.804;2022-11-20T20:04:37;42.80;;;18.80;;
19032;SDS011;9649;51.042;13.804;2022-11-20T20:09:40;35.40;;;16.87;;
19032;SDS011;9649;51.042;13.804;2022-11-20T20:14:42;32.80;;;15.47;;
19032;SDS011;9649;51.042;13.804;2022-11-20T20:19:46;33.60;;;16.50;;
19032;SDS011;9649;51.042;13.804;2022-11-20T20:24:49;35.13;;;15.87;;
19032;SDS011;9649;51.042;13.804;2022-11-20T20:29:52;30.73;;;15.10;;
19032;SDS011;9649;51.042;13.804;2022-11-20T20:34:57;35.90;;;17.53;;
19032;SDS011;9649;51.042;13.804;2022-11-20T20:40:00;32.73;;;15.40;;
19032;SDS011;9649;51.042;13.804;2022-11-20T20:45:03;50.43;;;17.00;;
19032;SDS011;9649;51.042;13.804;2022-11-20T20:50:12;38.13;;;16.83;;
19032;SDS011;9649;51.042;13.804;2022-11-20T20:55:15;37.10;;;16.03;;
19032;SDS011;9649;51.042;13.804;2022-11-20T21:00:18;35.63;;;15.73;;
19032;SDS011;9649;51.042;13.804;2022-11-20T21:05:22;31.33;;;14.97;;
19032;SDS011;9649;51.042;13.804;2022-11-20T21:10:25;33.57;;;14.93;;
19032;SDS011;9649;51.042;13.804;2022-11-20T21:15:28;32.77;;;14.70;;
19032;SDS011;9649;51.042;13.804;2022-11-20T21:20:32;34.63;;;15.00;;
19032;SDS011;9649;51.042;13.804;2022-11-20T21:25:53;36.47;;;15.03;;
19032;SDS011;9649;51.042;13.804;2022-11-20T21:31:01;34.00;;;14.83;;
19032;SDS011;9649;51.042;13.804;2022-11-20T21:36:07;37.50;;;15.20;;
19032;SDS011;9649;51.042;13.804;2022-11-20T21:41:11;40.77;;;16.03;;
19032;SDS011;9649;51.042;13.804;2022-11-20T21:46:15;33.57;;;15.50;;
19032;SDS011;9649;51.042;13.804;2022-11-20T21:51:20;35.90;;;15.40;;
19032;SDS011;9649;51.042;13.804;2022-11-20T21:56:25;35.97;;;15.30;;
19032;SDS011;9649;51.042;13.804;2022-11-20T22:01:28;32.87;;;14.70;;
19032;SDS011;9649;51.042;13.804;2022-11-20T22:06:33;36.97;;;14.17;;
19032;SDS011;9649;51.042;13.804;2022-11-20T22:11:39;36.33;;;14.27;;
19032;SDS011;9649;51.042;13.804;2022-11-20T22:16:41;33.23;;;14.87;;
19032;SDS011;9649;51.042;13.804;2022-11-20T22:21:46;36.87;;;15.43;;
19032;SDS011;9649;51.042;13.804;2022-11-20T22:26:49;32.30;;;14.87;;
19032;SDS011;9649;51.042;13.804;2022-11-20T22:31:52;33.73;;;13.53;;
19032;SDS011;9649;51.042;13.804;2022-11-20T22:36:56;33.37;;;13.93;;
19032;SDS011;9649;51.042;13.804;2022-11-20T22:42:12;36.43;;;14.97;;
19032;SDS011;9649;51.042;13.804;2022-11-20T22:47:17;41.80;;;17.03;;
19032;SDS011;9649;51.042;13.804;2022-11-20T22:52:24;39.83;;;15.70;;
19032;SDS011;9649;51.042;13.804;2022-11-20T23:04:00;41.90;;;16.63;;
19032;SDS011;9649;51.042;13.804;2022-11-20T23:09:20;43.77;;;18.93;;
19032;SDS011;9649;51.042;13.804;2022-11-20T23:14:30;49.93;;;18.73;;
19032;SDS011;9649;51.042;13.804;2022-11-20T23:19:36;46.97;;;18.27;;
19032;SDS011;9649;51.042;13.804;2022-11-20T23:24:43;56.93;;;20.77;;
19032;SDS011;9649;51.042;13.804;2022-11-20T23:29:49;56.87;;;22.43;;
19032;SDS011;9649;51.042;13.804;2022-11-20T23:34:55;59.50;;;23.23;;
19032;SDS011;9649;51.042;13.804;2022-11-20T23:40:00;62.83;;;22.80;;
19032;SDS011;9649;51.042;13.804;2022-11-20T23:45:03;64.13;;;24.20;;
19032;SDS011;9649;51.042;13.804;2022-11-20T23:50:08;56.83;;;22.77;;
19032;SDS011;9649;51.042;13.804;2022-11-20T23:55:17;60.40;;;22.80;;
